sensor_id;sensor_type;location;lat;lon;timestamp;temperature;humidity
59025;DHT22;44806;48.008;13.666;2023-05-07T00:02:07;14.90;99.90
59025;DHT22;44806;48.008;13.666;2023-05-07T00:04:34;14.90;99.90
59025;DHT22;44806;48.008;13.666;2023-05-07T00:07:04;14.90;99.90
59025;DHT22;44806;48.008;13.666;2023-05-07T00:09:31;14.80;99.90
59025;DHT22;44806;48.008;13.666;2023-05-07T00:11:58;14.80;99.90
59025;DHT22;44806;48.008;13.666;2023-05-07T00:14:25;14.70;99.90
59025;DHT22;44806;48.008;13.666;2023-05-07T00:16:53;14.60;99.90
59025;DHT22;44806;48.008;13.666;2023-05-07T00:19:19;14.60;99.90
59025;DHT22;44806;48.008;13.666;2023-05-07T00:21:47;14.70;99.90
59025;DHT22;44806;48.008;13.666;2023-05-07T00:24:15;14.60;99.90
59025;DHT22;44806;48.008;13.666;2023-05-07T00:26:42;14.60;99.90
59025;DHT22;44806;48.008;13.666;2023-05-07T00:29:09;14.60;99.90
59025;DHT22;44806;48.008;13.666;2023-05-07T00:31:36;14.50;99.90
59025;DHT22;44806;48.008;13.666;2023-05-07T00:34:03;14.30;99.90
59025;DHT22;44806;48.008;13.666;2023-05-07T00:36:30;14.10;99.90
59025;DHT22;44806;48.008;13.666;2023-05-07T00:38:58;14.10;99.90
59025;DHT22;44806;48.008;13.666;2023-05-07T00:41:27;14.20;99.90
59025;DHT22;44806;48.008;13.666;2023-05-07T00:43:54;14.30;99.90
59025;DHT22;44806;48.008;13.666;2023-05-07T00:46:21;14.30;99.90
59025;DHT22;44806;48.008;13.666;2023-05-07T00:48:50;14.20;99.90
59025;DHT22;44806;48.008;13.666;2023-05-07T00:51:17;14.20;99.90
59025;DHT22;44806;48.008;13.666;2023-05-07T00:53:45;14.20;99.90
59025;DHT22;44806;48.008;13.666;2023-05-07T00:56:12;14.20;99.90
59025;DHT22;44806;48.008;13.666;2023-05-07T00:58:42;14.20;99.90
59025;DHT22;44806;48.008;13.666;2023-05-07T01:01:09;14.20;99.90
59025;DHT22;44806;48.008;13.666;2023-05-07T01:03:36;14.20;99.90
59025;DHT22;44806;48.008;13.666;2023-05-07T01:06:04;14.20;99.90
59025;DHT22;44806;48.008;13.666;2023-05-07T01:08:33;14.20;99.90
59025;DHT22;44806;48.008;13.666;2023-05-07T01:11:00;14.20;99.90
59025;DHT22;44806;48.008;13.666;2023-05-07T01:13:27;14.10;99.90
59025;DHT22;44806;48.008;13.666;2023-05-07T01:15:57;14.10;99.90
59025;DHT22;44806;48.008;13.666;2023-05-07T01:18:23;14.10;99.90
59025;DHT22;44806;48.008;13.666;2023-05-07T01:20:51;14.00;99.90
59025;DHT22;44806;48.008;13.666;2023-05-07T01:23:20;14.10;99.90
59025;DHT22;44806;48.008;13.666;2023-05-07T01:25:51;14.00;99.90
59025;DHT22;44806;48.008;13.666;2023-05-07T01:28:19;14.00;99.90
59025;DHT22;44806;48.008;13.666;2023-05-07T01:30:49;14.00;99.90
59025;DHT22;44806;48.008;13.666;2023-05-07T01:33:20;14.00;99.90
59025;DHT22;44806;48.008;13.666;2023-05-07T01:35:51;14.00;99.90
59025;DHT22;44806;48.008;13.666;2023-05-07T01:38:21;14.00;99.90
59025;DHT22;44806;48.008;13.666;2023-05-07T01:40:48;14.00;99.90
59025;DHT22;44806;48.008;13.666;2023-05-07T01:43:16;14.00;99.90
59025;DHT22;44806;48.008;13.666;2023-05-07T01:45:43;14.00;99.90
59025;DHT22;44806;48.008;13.666;2023-05-07T01:48:12;14.00;99.90
59025;DHT22;44806;48.008;13.666;2023-05-07T01:50:39;14.00;99.90
59025;DHT22;44806;48.008;13.666;2023-05-07T01:53:07;13.90;99.90
59025;DHT22;44806;48.008;13.666;2023-05-07T01:55:35;13.90;99.90
59025;DHT22;44806;48.008;13.666;2023-05-07T01:58:02;13.90;99.90
59025;DHT22;44806;48.008;13.666;2023-05-07T02:00:29;13.80;99.90
59025;DHT22;44806;48.008;13.666;2023-05-07T02:02:56;13.70;99.90
59025;DHT22;44806;48.008;13.666;2023-05-07T02:05:24;13.50;99.90
59025;DHT22;44806;48.008;13.666;2023-05-07T02:07:50;13.50;99.90
59025;DHT22;44806;48.008;13.666;2023-05-07T02:10:17;13.50;99.90
59025;DHT22;44806;48.008;13.666;2023-05-07T02:12:46;13.60;99.90
59025;DHT22;44806;48.008;13.666;2023-05-07T02:15:12;13.60;99.90
59025;DHT22;44806;48.008;13.666;2023-05-07T02:20:21;13.60;99.90
59025;DHT22;44806;48.008;13.666;2023-05-07T02:22:48;13.60;99.90
59025;DHT22;44806;48.008;13.666;2023-05-07T02:25:15;13.40;99.90
59025;DHT22;44806;48.008;13.666;2023-05-07T02:27:42;13.40;99.90
59025;DHT22;44806;48.008;13.666;2023-05-07T02:30:12;13.50;99.90
59025;DHT22;44806;48.008;13.666;2023-05-07T02:32:38;13.50;99.90
59025;DHT22;44806;48.008;13.666;2023-05-07T02:35:06;13.50;99.90
59025;DHT22;44806;48.008;13.666;2023-05-07T02:37:33;13.40;99.90
59025;DHT22;44806;48.008;13.666;2023-05-07T02:40:00;13.30;99.90
59025;DHT22;44806;48.008;13.666;2023-05-07T02:42:29;13.40;99.90
59025;DHT22;44806;48.008;13.666;2023-05-07T02:44:56;13.40;99.90
59025;DHT22;44806;48.008;13.666;2023-05-07T02:47:25;13.50;99.90
59025;DHT22;44806;48.008;13.666;2023-05-07T02:49:54;13.50;99.90
59025;DHT22;44806;48.008;13.666;2023-05-07T02:52:21;13.60;99.90
59025;DHT22;44806;48.008;13.666;2023-05-07T02:54:48;13.60;99.90
59025;DHT22;44806;48.008;13.666;2023-05-07T02:57:15;13.60;99.90
59025;DHT22;44806;48.008;13.666;2023-05-07T02:59:42;13.50;99.90
59025;DHT22;44806;48.008;13.666;2023-05-07T03:02:09;13.60;99.90
59025;DHT22;44806;48.008;13.666;2023-05-07T03:04:39;13.60;99.90
59025;DHT22;44806;48.008;13.666;2023-05-07T03:07:06;13.60;99.90
59025;DHT22;44806;48.008;13.666;2023-05-07T03:09:33;13.60;99.90
59025;DHT22;44806;48.008;13.666;2023-05-07T03:12:00;13.60;99.90
59025;DHT22;44806;48.008;13.666;2023-05-07T03:14:27;13.50;99.90
59025;DHT22;44806;48.008;13.666;2023-05-07T03:16:54;13.50;99.90
59025;DHT22;44806;48.008;13.666;2023-05-07T03:19:21;13.60;99.90
59025;DHT22;44806;48.008;13.666;2023-05-07T03:21:50;13.60;99.90
59025;DHT22;44806;48.008;13.666;2023-05-07T03:24:17;13.60;99.90
59025;DHT22;44806;48.008;13.666;2023-05-07T03:26:43;13.60;99.90
59025;DHT22;44806;48.008;13.666;2023-05-07T03:29:10;13.60;99.90
59025;DHT22;44806;48.008;13.666;2023-05-07T03:31:37;13.50;99.90
59025;DHT22;44806;48.008;13.666;2023-05-07T03:34:04;13.50;99.90
59025;DHT22;44806;48.008;13.666;2023-05-07T03:36:31;13.50;99.90
59025;DHT22;44806;48.008;13.666;2023-05-07T03:39:00;13.50;99.90
59025;DHT22;44806;48.008;13.666;2023-05-07T03:41:27;13.50;99.90
59025;DHT22;44806;48.008;13.666;2023-05-07T03:43:55;13.60;99.90
59025;DHT22;44806;48.008;13.666;2023-05-07T03:46:22;13.60;99.90
59025;DHT22;44806;48.008;13.666;2023-05-07T03:48:51;13.60;99.90
59025;DHT22;44806;48.008;13.666;2023-05-07T03:51:18;13.60;99.90
59025;DHT22;44806;48.008;13.666;2023-05-07T03:53:45;13.60;99.90
59025;DHT22;44806;48.008;13.666;2023-05-07T03:56:14;13.60;99.90
59025;DHT22;44806;48.008;13.666;2023-05-07T03:58:41;13.60;99.90
59025;DHT22;44806;48.008;13.666;2023-05-07T04:01:07;13.70;99.90
59025;DHT22;44806;48.008;13.666;2023-05-07T04:03:35;13.70;99.90
59025;DHT22;44806;48.008;13.666;2023-05-07T04:06:02;13.60;99.90
59025;DHT22;44806;48.008;13.666;2023-05-07T04:08:29;13.60;99.90
59025;DHT22;44806;48.008;13.666;2023-05-07T04:10:56;13.60;99.90
59025;DHT22;44806;48.008;13.666;2023-05-07T04:13:24;13.60;99.90
59025;DHT22;44806;48.008;13.666;2023-05-07T04:15:52;13.60;99.90
59025;DHT22;44806;48.008;13.666;2023-05-07T04:18:19;13.60;99.90
59025;DHT22;44806;48.008;13.666;2023-05-07T04:20:47;13.60;99.90
59025;DHT22;44806;48.008;13.666;2023-05-07T04:23:14;13.70;99.90
59025;DHT22;44806;48.008;13.666;2023-05-07T04:25:41;13.70;99.90
59025;DHT22;44806;48.008;13.666;2023-05-07T04:28:08;13.70;99.90
59025;DHT22;44806;48.008;13.666;2023-05-07T04:30:36;13.70;99.90
59025;DHT22;44806;48.008;13.666;2023-05-07T04:33:03;13.70;99.90
59025;DHT22;44806;48.008;13.666;2023-05-07T04:35:32;13.70;99.90
59025;DHT22;44806;48.008;13.666;2023-05-07T04:37:59;13.70;99.90
59025;DHT22;44806;48.008;13.666;2023-05-07T04:40:26;13.70;99.90
59025;DHT22;44806;48.008;13.666;2023-05-07T04:42:52;13.70;99.90
59025;DHT22;44806;48.008;13.666;2023-05-07T04:45:20;13.70;99.90
59025;DHT22;44806;48.008;13.666;2023-05-07T04:47:48;13.80;99.90
59025;DHT22;44806;48.008;13.666;2023-05-07T04:50:15;13.80;99.90
59025;DHT22;44806;48.008;13.666;2023-05-07T04:52:44;13.80;99.90
59025;DHT22;44806;48.008;13.666;2023-05-07T04:55:12;13.80;99.90
59025;DHT22;44806;48.008;13.666;2023-05-07T04:57:39;13.80;99.90
59025;DHT22;44806;48.008;13.666;2023-05-07T05:00:07;13.90;99.90
59025;DHT22;44806;48.008;13.666;2023-05-07T05:02:35;13.80;99.90
59025;DHT22;44806;48.008;13.666;2023-05-07T05:05:05;13.80;99.90
59025;DHT22;44806;48.008;13.666;2023-05-07T05:07:32;13.80;99.90
59025;DHT22;44806;48.008;13.666;2023-05-07T05:09:59;13.90;99.90
59025;DHT22;44806;48.008;13.666;2023-05-07T05:12:26;13.90;99.90
59025;DHT22;44806;48.008;13.666;2023-05-07T05:14:53;14.00;99.90
59025;DHT22;44806;48.008;13.666;2023-05-07T05:17:20;14.00;99.90
59025;DHT22;44806;48.008;13.666;2023-05-07T05:19:47;14.00;99.90
59025;DHT22;44806;48.008;13.666;2023-05-07T05:22:16;14.10;99.90
59025;DHT22;44806;48.008;13.666;2023-05-07T05:24:42;14.10;99.90
59025;DHT22;44806;48.008;13.666;2023-05-07T05:27:09;14.20;99.90
59025;DHT22;44806;48.008;13.666;2023-05-07T05:29:36;14.30;99.90
59025;DHT22;44806;48.008;13.666;2023-05-07T05:32:03;14.30;99.90
59025;DHT22;44806;48.008;13.666;2023-05-07T05:34:30;14.20;99.90
59025;DHT22;44806;48.008;13.666;2023-05-07T05:36:59;14.10;99.90
59025;DHT22;44806;48.008;13.666;2023-05-07T05:39:27;14.10;99.90
59025;DHT22;44806;48.008;13.666;2023-05-07T05:41:54;14.10;99.90
59025;DHT22;44806;48.008;13.666;2023-05-07T05:44:21;14.20;99.90
59025;DHT22;44806;48.008;13.666;2023-05-07T05:46:48;14.30;99.90
59025;DHT22;44806;48.008;13.666;2023-05-07T05:49:15;14.40;99.90
59025;DHT22;44806;48.008;13.666;2023-05-07T05:51:43;14.40;99.90
59025;DHT22;44806;48.008;13.666;2023-05-07T05:54:10;14.50;99.90
59025;DHT22;44806;48.008;13.666;2023-05-07T05:56:39;14.50;99.90
59025;DHT22;44806;48.008;13.666;2023-05-07T05:59:05;14.50;99.90
59025;DHT22;44806;48.008;13.666;2023-05-07T06:01:32;14.50;99.90
59025;DHT22;44806;48.008;13.666;2023-05-07T06:04:00;14.60;99.90
59025;DHT22;44806;48.008;13.666;2023-05-07T06:06:27;14.60;99.90
59025;DHT22;44806;48.008;13.666;2023-05-07T06:08:54;14.60;99.90
59025;DHT22;44806;48.008;13.666;2023-05-07T06:11:21;14.60;99.90
59025;DHT22;44806;48.008;13.666;2023-05-07T06:13:49;14.60;99.90
59025;DHT22;44806;48.008;13.666;2023-05-07T06:16:16;14.60;99.90
59025;DHT22;44806;48.008;13.666;2023-05-07T06:18:43;14.60;99.90
59025;DHT22;44806;48.008;13.666;2023-05-07T06:21:10;14.60;99.90
59025;DHT22;44806;48.008;13.666;2023-05-07T06:23:38;14.60;99.90
59025;DHT22;44806;48.008;13.666;2023-05-07T06:26:06;14.60;99.90
59025;DHT22;44806;48.008;13.666;2023-05-07T06:28:33;14.70;99.90
59025;DHT22;44806;48.008;13.666;2023-05-07T06:31:13;14.80;99.90
59025;DHT22;44806;48.008;13.666;2023-05-07T06:33:40;14.80;99.90
59025;DHT22;44806;48.008;13.666;2023-05-07T06:36:07;14.90;99.90
59025;DHT22;44806;48.008;13.666;2023-05-07T06:38:34;15.00;99.90
59025;DHT22;44806;48.008;13.666;2023-05-07T06:41:01;15.10;99.90
59025;DHT22;44806;48.008;13.666;2023-05-07T06:43:28;15.10;99.90
59025;DHT22;44806;48.008;13.666;2023-05-07T06:45:55;15.20;99.90
59025;DHT22;44806;48.008;13.666;2023-05-07T06:48:23;15.30;99.90
59025;DHT22;44806;48.008;13.666;2023-05-07T06:50:50;15.40;99.90
59025;DHT22;44806;48.008;13.666;2023-05-07T06:53:17;15.50;99.90
59025;DHT22;44806;48.008;13.666;2023-05-07T06:55:44;15.60;99.90
59025;DHT22;44806;48.008;13.666;2023-05-07T06:58:11;15.70;99.90
59025;DHT22;44806;48.008;13.666;2023-05-07T07:00:38;15.90;99.90
59025;DHT22;44806;48.008;13.666;2023-05-07T07:03:06;15.90;99.90
59025;DHT22;44806;48.008;13.666;2023-05-07T07:05:35;16.00;99.90
59025;DHT22;44806;48.008;13.666;2023-05-07T07:08:01;15.90;99.90
59025;DHT22;44806;48.008;13.666;2023-05-07T07:10:28;16.00;99.90
59025;DHT22;44806;48.008;13.666;2023-05-07T07:12:55;16.00;99.90
59025;DHT22;44806;48.008;13.666;2023-05-07T07:15:22;16.10;99.90
59025;DHT22;44806;48.008;13.666;2023-05-07T07:17:50;16.30;99.90
59025;DHT22;44806;48.008;13.666;2023-05-07T07:20:17;16.40;99.90
59025;DHT22;44806;48.008;13.666;2023-05-07T07:22:45;16.50;99.90
59025;DHT22;44806;48.008;13.666;2023-05-07T07:25:12;16.50;99.90
59025;DHT22;44806;48.008;13.666;2023-05-07T07:27:39;16.60;99.90
59025;DHT22;44806;48.008;13.666;2023-05-07T07:30:07;16.80;99.90
59025;DHT22;44806;48.008;13.666;2023-05-07T07:32:34;16.90;99.90
59025;DHT22;44806;48.008;13.666;2023-05-07T07:35:01;17.00;99.90
59025;DHT22;44806;48.008;13.666;2023-05-07T07:37:28;17.10;99.90
59025;DHT22;44806;48.008;13.666;2023-05-07T07:39:56;17.30;99.90
59025;DHT22;44806;48.008;13.666;2023-05-07T07:42:23;17.20;99.90
59025;DHT22;44806;48.008;13.666;2023-05-07T07:44:50;17.30;99.90
59025;DHT22;44806;48.008;13.666;2023-05-07T07:47:17;17.30;99.90
59025;DHT22;44806;48.008;13.666;2023-05-07T07:49:44;17.40;99.90
59025;DHT22;44806;48.008;13.666;2023-05-07T07:52:11;17.50;99.90
59025;DHT22;44806;48.008;13.666;2023-05-07T07:54:38;17.40;99.90
59025;DHT22;44806;48.008;13.666;2023-05-07T07:57:06;17.60;99.90
59025;DHT22;44806;48.008;13.666;2023-05-07T07:59:33;17.50;99.90
59025;DHT22;44806;48.008;13.666;2023-05-07T08:02:00;17.60;99.90
59025;DHT22;44806;48.008;13.666;2023-05-07T08:04:27;17.80;99.90
59025;DHT22;44806;48.008;13.666;2023-05-07T08:06:54;18.00;99.90
59025;DHT22;44806;48.008;13.666;2023-05-07T08:09:21;18.10;99.90
59025;DHT22;44806;48.008;13.666;2023-05-07T08:11:48;18.20;99.90
59025;DHT22;44806;48.008;13.666;2023-05-07T08:14:17;18.20;99.90
59025;DHT22;44806;48.008;13.666;2023-05-07T08:16:44;18.20;99.90
59025;DHT22;44806;48.008;13.666;2023-05-07T08:19:11;18.20;99.90
59025;DHT22;44806;48.008;13.666;2023-05-07T08:21:39;18.40;99.90
59025;DHT22;44806;48.008;13.666;2023-05-07T08:24:06;18.60;99.90
59025;DHT22;44806;48.008;13.666;2023-05-07T08:26:33;18.60;99.90
59025;DHT22;44806;48.008;13.666;2023-05-07T08:29:01;18.60;99.90
59025;DHT22;44806;48.008;13.666;2023-05-07T08:31:29;18.50;99.90
59025;DHT22;44806;48.008;13.666;2023-05-07T08:33:57;18.60;99.90
59025;DHT22;44806;48.008;13.666;2023-05-07T08:36:24;18.70;99.90
59025;DHT22;44806;48.008;13.666;2023-05-07T08:38:52;18.80;99.90
59025;DHT22;44806;48.008;13.666;2023-05-07T08:41:19;18.80;99.90
59025;DHT22;44806;48.008;13.666;2023-05-07T08:43:48;19.00;99.90
59025;DHT22;44806;48.008;13.666;2023-05-07T08:46:18;19.10;99.90
59025;DHT22;44806;48.008;13.666;2023-05-07T08:48:48;19.10;99.90
59025;DHT22;44806;48.008;13.666;2023-05-07T08:51:16;19.30;99.90
59025;DHT22;44806;48.008;13.666;2023-05-07T08:53:44;19.30;99.90
59025;DHT22;44806;48.008;13.666;2023-05-07T08:56:11;19.20;99.90
59025;DHT22;44806;48.008;13.666;2023-05-07T08:58:38;19.40;99.90
59025;DHT22;44806;48.008;13.666;2023-05-07T09:01:09;19.50;99.90
59025;DHT22;44806;48.008;13.666;2023-05-07T09:03:37;19.70;99.90
59025;DHT22;44806;48.008;13.666;2023-05-07T09:06:06;19.80;99.90
59025;DHT22;44806;48.008;13.666;2023-05-07T09:08:34;19.90;99.90
59025;DHT22;44806;48.008;13.666;2023-05-07T09:11:02;19.90;99.90
59025;DHT22;44806;48.008;13.666;2023-05-07T09:13:29;19.90;99.90
59025;DHT22;44806;48.008;13.666;2023-05-07T09:15:56;20.10;99.90
59025;DHT22;44806;48.008;13.666;2023-05-07T09:18:24;20.20;99.90
59025;DHT22;44806;48.008;13.666;2023-05-07T09:20:51;20.40;99.90
59025;DHT22;44806;48.008;13.666;2023-05-07T09:23:20;20.50;99.20
59025;DHT22;44806;48.008;13.666;2023-05-07T09:25:47;20.50;99.90
59025;DHT22;44806;48.008;13.666;2023-05-07T09:28:14;20.70;99.70
59025;DHT22;44806;48.008;13.666;2023-05-07T09:30:41;20.70;98.00
59025;DHT22;44806;48.008;13.666;2023-05-07T09:33:08;20.80;98.60
59025;DHT22;44806;48.008;13.666;2023-05-07T09:35:35;20.80;99.20
59025;DHT22;44806;48.008;13.666;2023-05-07T09:38:02;20.90;97.60
59025;DHT22;44806;48.008;13.666;2023-05-07T09:40:31;21.10;96.70
59025;DHT22;44806;48.008;13.666;2023-05-07T09:43:08;21.10;97.20
59025;DHT22;44806;48.008;13.666;2023-05-07T09:45:36;21.10;96.60
59025;DHT22;44806;48.008;13.666;2023-05-07T09:48:05;21.00;97.50
59025;DHT22;44806;48.008;13.666;2023-05-07T09:50:36;21.10;96.70
59025;DHT22;44806;48.008;13.666;2023-05-07T09:53:03;21.20;96.40
59025;DHT22;44806;48.008;13.666;2023-05-07T09:55:32;21.30;95.80
59025;DHT22;44806;48.008;13.666;2023-05-07T09:58:00;21.30;95.40
59025;DHT22;44806;48.008;13.666;2023-05-07T10:00:29;21.30;94.80
59025;DHT22;44806;48.008;13.666;2023-05-07T10:02:57;21.20;95.40
59025;DHT22;44806;48.008;13.666;2023-05-07T10:05:25;21.30;93.90
59025;DHT22;44806;48.008;13.666;2023-05-07T10:07:53;21.20;95.70
59025;DHT22;44806;48.008;13.666;2023-05-07T10:10:21;21.40;93.90
59025;DHT22;44806;48.008;13.666;2023-05-07T10:12:51;21.60;95.00
59025;DHT22;44806;48.008;13.666;2023-05-07T10:15:18;21.70;92.30
59025;DHT22;44806;48.008;13.666;2023-05-07T10:17:46;22.00;93.40
59025;DHT22;44806;48.008;13.666;2023-05-07T10:20:15;22.10;92.70
59025;DHT22;44806;48.008;13.666;2023-05-07T10:22:43;22.20;92.10
59025;DHT22;44806;48.008;13.666;2023-05-07T10:25:16;22.10;91.70
59025;DHT22;44806;48.008;13.666;2023-05-07T10:27:45;22.10;91.10
59025;DHT22;44806;48.008;13.666;2023-05-07T10:30:21;22.30;90.40
59025;DHT22;44806;48.008;13.666;2023-05-07T10:32:55;22.50;91.90
59025;DHT22;44806;48.008;13.666;2023-05-07T10:35:26;22.50;89.50
59025;DHT22;44806;48.008;13.666;2023-05-07T10:37:54;22.60;90.40
59025;DHT22;44806;48.008;13.666;2023-05-07T10:40:21;22.70;90.40
59025;DHT22;44806;48.008;13.666;2023-05-07T10:42:55;22.80;90.70
59025;DHT22;44806;48.008;13.666;2023-05-07T10:45:25;22.90;89.00
59025;DHT22;44806;48.008;13.666;2023-05-07T10:48:12;23.10;90.00
59025;DHT22;44806;48.008;13.666;2023-05-07T10:50:40;23.20;90.60
59025;DHT22;44806;48.008;13.666;2023-05-07T10:53:24;23.30;89.70
59025;DHT22;44806;48.008;13.666;2023-05-07T10:56:24;23.40;89.40
59025;DHT22;44806;48.008;13.666;2023-05-07T10:58:52;23.60;85.70
59025;DHT22;44806;48.008;13.666;2023-05-07T11:01:51;23.80;85.50
59025;DHT22;44806;48.008;13.666;2023-05-07T11:04:19;23.80;83.90
59025;DHT22;44806;48.008;13.666;2023-05-07T11:10:01;24.10;82.30
59025;DHT22;44806;48.008;13.666;2023-05-07T11:12:52;24.20;83.20
59025;DHT22;44806;48.008;13.666;2023-05-07T11:15:43;24.10;80.60
59025;DHT22;44806;48.008;13.666;2023-05-07T11:18:13;24.20;80.30
59025;DHT22;44806;48.008;13.666;2023-05-07T11:20:48;24.30;80.30
59025;DHT22;44806;48.008;13.666;2023-05-07T11:23:56;24.20;78.10
59025;DHT22;44806;48.008;13.666;2023-05-07T11:26:28;24.30;76.40
59025;DHT22;44806;48.008;13.666;2023-05-07T11:28:55;24.40;76.90
59025;DHT22;44806;48.008;13.666;2023-05-07T11:31:24;24.60;78.30
59025;DHT22;44806;48.008;13.666;2023-05-07T11:33:54;24.60;77.70
59025;DHT22;44806;48.008;13.666;2023-05-07T11:36:23;24.70;76.80
59025;DHT22;44806;48.008;13.666;2023-05-07T11:38:51;24.60;74.70
59025;DHT22;44806;48.008;13.666;2023-05-07T11:41:18;24.70;75.70
59025;DHT22;44806;48.008;13.666;2023-05-07T11:43:56;24.70;74.10
59025;DHT22;44806;48.008;13.666;2023-05-07T11:46:23;24.70;75.80
59025;DHT22;44806;48.008;13.666;2023-05-07T11:48:50;24.70;76.90
59025;DHT22;44806;48.008;13.666;2023-05-07T11:51:23;24.80;75.00
59025;DHT22;44806;48.008;13.666;2023-05-07T11:53:51;25.00;74.80
59025;DHT22;44806;48.008;13.666;2023-05-07T11:56:19;25.20;75.20
59025;DHT22;44806;48.008;13.666;2023-05-07T11:58:47;25.30;74.50
59025;DHT22;44806;48.008;13.666;2023-05-07T12:01:15;25.30;71.90
59025;DHT22;44806;48.008;13.666;2023-05-07T12:03:44;25.00;69.80
59025;DHT22;44806;48.008;13.666;2023-05-07T12:06:14;25.00;71.70
59025;DHT22;44806;48.008;13.666;2023-05-07T12:08:44;24.90;71.10
59025;DHT22;44806;48.008;13.666;2023-05-07T12:11:14;24.50;75.00
59025;DHT22;44806;48.008;13.666;2023-05-07T12:13:43;24.50;73.20
59025;DHT22;44806;48.008;13.666;2023-05-07T12:16:10;24.60;72.10
59025;DHT22;44806;48.008;13.666;2023-05-07T12:18:37;24.70;70.60
59025;DHT22;44806;48.008;13.666;2023-05-07T12:21:05;24.80;72.40
59025;DHT22;44806;48.008;13.666;2023-05-07T12:23:34;25.00;71.50
59025;DHT22;44806;48.008;13.666;2023-05-07T12:26:02;25.00;72.10
59025;DHT22;44806;48.008;13.666;2023-05-07T12:28:31;24.90;72.10
59025;DHT22;44806;48.008;13.666;2023-05-07T12:31:03;24.80;69.60
59025;DHT22;44806;48.008;13.666;2023-05-07T12:33:31;24.70;69.80
59025;DHT22;44806;48.008;13.666;2023-05-07T12:35:58;24.50;67.80
59025;DHT22;44806;48.008;13.666;2023-05-07T12:38:25;24.50;70.40
59025;DHT22;44806;48.008;13.666;2023-05-07T12:40:54;24.60;70.20
59025;DHT22;44806;48.008;13.666;2023-05-07T12:43:25;24.60;69.80
59025;DHT22;44806;48.008;13.666;2023-05-07T12:45:54;24.30;69.50
59025;DHT22;44806;48.008;13.666;2023-05-07T12:48:22;24.20;69.50
59025;DHT22;44806;48.008;13.666;2023-05-07T12:50:49;24.30;71.30
59025;DHT22;44806;48.008;13.666;2023-05-07T12:53:17;24.50;70.00
59025;DHT22;44806;48.008;13.666;2023-05-07T12:55:48;24.60;71.10
59025;DHT22;44806;48.008;13.666;2023-05-07T12:58:16;24.60;67.60
59025;DHT22;44806;48.008;13.666;2023-05-07T13:00:47;24.60;65.60
59025;DHT22;44806;48.008;13.666;2023-05-07T13:03:22;24.60;67.10
59025;DHT22;44806;48.008;13.666;2023-05-07T13:05:49;24.60;65.90
59025;DHT22;44806;48.008;13.666;2023-05-07T13:08:31;24.30;64.70
59025;DHT22;44806;48.008;13.666;2023-05-07T13:10:59;24.20;65.80
59025;DHT22;44806;48.008;13.666;2023-05-07T13:13:28;24.10;67.00
59025;DHT22;44806;48.008;13.666;2023-05-07T13:15:57;23.90;64.50
59025;DHT22;44806;48.008;13.666;2023-05-07T13:18:24;24.10;66.20
59025;DHT22;44806;48.008;13.666;2023-05-07T13:20:52;24.30;66.00
59025;DHT22;44806;48.008;13.666;2023-05-07T13:23:19;24.30;66.30
59025;DHT22;44806;48.008;13.666;2023-05-07T13:25:47;24.40;63.90
59025;DHT22;44806;48.008;13.666;2023-05-07T13:28:14;24.50;67.00
59025;DHT22;44806;48.008;13.666;2023-05-07T13:30:41;24.60;63.10
59025;DHT22;44806;48.008;13.666;2023-05-07T13:33:09;24.70;64.20
59025;DHT22;44806;48.008;13.666;2023-05-07T13:35:36;24.70;63.80
59025;DHT22;44806;48.008;13.666;2023-05-07T13:38:03;24.60;64.20
59025;DHT22;44806;48.008;13.666;2023-05-07T13:40:30;24.80;65.00
59025;DHT22;44806;48.008;13.666;2023-05-07T13:42:58;24.90;63.80
59025;DHT22;44806;48.008;13.666;2023-05-07T13:45:27;24.80;63.10
59025;DHT22;44806;48.008;13.666;2023-05-07T13:47:55;24.90;64.50
59025;DHT22;44806;48.008;13.666;2023-05-07T13:50:23;24.90;63.40
59025;DHT22;44806;48.008;13.666;2023-05-07T13:52:52;24.70;63.00
59025;DHT22;44806;48.008;13.666;2023-05-07T13:55:20;24.60;63.80
59025;DHT22;44806;48.008;13.666;2023-05-07T13:57:53;24.70;64.20
59025;DHT22;44806;48.008;13.666;2023-05-07T14:00:20;24.60;64.20
59025;DHT22;44806;48.008;13.666;2023-05-07T14:02:47;24.60;63.50
59025;DHT22;44806;48.008;13.666;2023-05-07T14:05:14;24.60;65.80
59025;DHT22;44806;48.008;13.666;2023-05-07T14:07:43;24.70;65.40
59025;DHT22;44806;48.008;13.666;2023-05-07T14:10:10;24.50;63.50
59025;DHT22;44806;48.008;13.666;2023-05-07T14:12:38;24.60;66.70
59025;DHT22;44806;48.008;13.666;2023-05-07T14:15:06;24.60;65.90
59025;DHT22;44806;48.008;13.666;2023-05-07T14:17:33;24.70;67.50
59025;DHT22;44806;48.008;13.666;2023-05-07T14:20:00;24.60;64.50
59025;DHT22;44806;48.008;13.666;2023-05-07T14:22:27;24.60;65.40
59025;DHT22;44806;48.008;13.666;2023-05-07T14:24:56;24.60;66.70
59025;DHT22;44806;48.008;13.666;2023-05-07T14:27:23;24.60;64.90
59025;DHT22;44806;48.008;13.666;2023-05-07T14:29:50;24.60;65.60
59025;DHT22;44806;48.008;13.666;2023-05-07T14:32:17;24.70;64.70
59025;DHT22;44806;48.008;13.666;2023-05-07T14:34:44;24.70;63.70
59025;DHT22;44806;48.008;13.666;2023-05-07T14:37:12;24.60;63.80
59025;DHT22;44806;48.008;13.666;2023-05-07T14:39:39;24.50;63.20
59025;DHT22;44806;48.008;13.666;2023-05-07T14:42:07;24.50;66.20
59025;DHT22;44806;48.008;13.666;2023-05-07T14:44:35;24.50;63.40
59025;DHT22;44806;48.008;13.666;2023-05-07T14:47:02;24.40;65.60
59025;DHT22;44806;48.008;13.666;2023-05-07T14:49:29;24.40;65.80
59025;DHT22;44806;48.008;13.666;2023-05-07T14:51:57;24.40;66.70
59025;DHT22;44806;48.008;13.666;2023-05-07T14:54:24;24.40;65.00
59025;DHT22;44806;48.008;13.666;2023-05-07T14:56:51;24.40;66.00
59025;DHT22;44806;48.008;13.666;2023-05-07T14:59:20;24.20;63.70
59025;DHT22;44806;48.008;13.666;2023-05-07T15:01:47;24.10;64.20
59025;DHT22;44806;48.008;13.666;2023-05-07T15:04:14;24.10;63.90
59025;DHT22;44806;48.008;13.666;2023-05-07T15:06:41;24.10;64.90
59025;DHT22;44806;48.008;13.666;2023-05-07T15:09:08;24.00;64.90
59025;DHT22;44806;48.008;13.666;2023-05-07T15:11:35;24.00;63.90
59025;DHT22;44806;48.008;13.666;2023-05-07T15:14:02;24.00;63.50
59025;DHT22;44806;48.008;13.666;2023-05-07T15:16:31;23.90;63.20
59025;DHT22;44806;48.008;13.666;2023-05-07T15:18:58;23.90;64.80
59025;DHT22;44806;48.008;13.666;2023-05-07T15:21:25;23.80;64.20
59025;DHT22;44806;48.008;13.666;2023-05-07T15:23:53;23.70;65.80
59025;DHT22;44806;48.008;13.666;2023-05-07T15:26:20;23.70;65.80
59025;DHT22;44806;48.008;13.666;2023-05-07T15:28:47;23.70;65.60